Breckenridge, TX (76424)

2:08 AM CST on December 11, 2016 (GMT -0600)
West Breckenridge | | Change Station

Elev 1263 ft 32.75 °N, 98.93 °W | Updated 38 seconds ago

Overcast
Overcast
53.4 °F
Feels Like 53.4 °F
N
3.5
Wind Variable Wind from SSW
Gusts 13.0 mph

Today
High -- | Low -- °F
--% Chance of Precip.
Yesterday
High -- | Low -- °F
Precip. -- in
Pressure 29.99 in
Visibility 10.0 miles
Clouds Overcast 1300 ft
Dew Point 49 °F
Humidity 86%
Rainfall 0.00 in
Snow Depth Not available.
7:28 AM 5:30 PM
Waxing Gibbous, 90% visible
METAR KBKD 110755Z AUTO 19013G22KT 10SM OVC013 13/09 A2999 RMK AO2 T01250092
Pressure 29.99 in
Visibility 10.0 miles
Clouds Overcast 1300 ft
Dew Point 49 °F
Humidity 86%
Rainfall 0.00 in
Snow Depth Not available.
7:28 AM 5:30 PM
Waxing Gibbous, 90% visible
METAR KBKD 110755Z AUTO 19013G22KT 10SM OVC013 13/09 A2999 RMK AO2 T01250092

10-Day Weather Forecast

Almanac

Astronomy

Dec. 11, 2016 Rise Set
Actual Time
Civil Twilight
Nautical Twilight
Astronomical Twilight
Moon
Length of Visible Light
Length of Day
Tomorrow will be .
, % of the Moon is Illuminated

Today's Extremes

State Highs State Lows

Community

WunderPhotos

Upload Photos

1,956,706 photos uploaded!

WunderBlog® & News

Nearby

Air Quality

  Air Quality AQ Index Pollutant
Not available.

Snow Depth

Station Depth Elevation

Earthquake Activity

City Distance Mag. Time & Date
Minimum magnitude displayed is 2.5.

Coastal Water Temperatures

Place Temperature

Stations

Nearby Weather Stations

Station Location Temp. Windchill Dew Point Humidity Wind Precip. Elev Updated Type
                   

Watches & Warnings

There are currently no watches in effect.